Time;durP1;ratioP1;P1;durP2;ratioP2;P2;SDS_P1;SDS_P2;PMS_P1;PMS_P2;Temp;Humidity;BMP_temperature;BMP_pressure;BME280_temperature;BME280_humidity;BME280_pressure;Samples;Min_cycle;Max_cycle;Signal;HPM_P1;HPM_P2
2023/01/20 00:01:04;;;;;;;;;;;-0.80;99.90;;;;;;5079125;28;19916;-64
2023/01/20 00:03:30;;;;;;;;;;;-0.80;99.90;;;;;;5058253;28;20343;-64
2023/01/20 00:05:55;;;;;;;;;;;-0.80;99.90;;;;;;5079368;28;19927;-64
2023/01/20 00:08:21;;;;;;;;;;;-0.90;99.90;;;;;;5060035;28;19962;-65
2023/01/20 00:10:46;;;;;;;;;;;-0.90;99.90;;;;;;5064693;28;19969;-64
2023/01/20 00:13:12;;;;;;;;;;;-0.80;99.90;;;;;;5063081;28;20354;-64
2023/01/20 00:15:38;;;;;;;;;;;-0.80;99.90;;;;;;5083781;28;20099;-64
2023/01/20 00:18:03;;;;;;;;;;;-0.80;99.90;;;;;;5058189;28;20019;-65
2023/01/20 00:20:29;;;;;;;;;;;-0.80;99.90;;;;;;5066088;28;20024;-64
2023/01/20 00:22:55;;;;;;;;;;;-0.80;99.90;;;;;;5077910;28;20268;-64
2023/01/20 00:25:20;;;;;;;;;;;-0.70;99.90;;;;;;5063508;28;19981;-65
2023/01/20 00:27:46;;;;;;;;;;;-0.70;99.90;;;;;;5083743;28;20065;-64
2023/01/20 00:30:12;;;;;;;;;;;-0.60;99.90;;;;;;5082598;28;21160;-64
2023/01/20 00:32:38;;;;;;;;;;;-0.50;99.90;;;;;;5084636;28;19948;-65
2023/01/20 00:35:05;;;;;;;;;;;-0.40;99.90;;;;;;5053676;28;20020;-65
2023/01/20 00:37:31;;;;;;;;;;;-0.30;99.90;;;;;;5059119;28;20269;-65
2023/01/20 00:39:56;;;;;;;;;;;-0.20;99.90;;;;;;5079159;28;19935;-64
2023/01/20 00:42:22;;;;;;;;;;;-0.20;99.90;;;;;;5078820;28;20304;-64
2023/01/20 00:44:48;;;;;;;;;;;-0.10;99.90;;;;;;5081131;28;19990;-64
2023/01/20 00:47:14;;;;;;;;;;;-0.10;99.90;;;;;;5074328;28;20380;-64
2023/01/20 00:49:39;;;;;;;;;;;0.10;99.90;;;;;;5065522;28;19916;-64
2023/01/20 00:52:05;;;;;;;;;;;0.10;99.90;;;;;;5067353;28;19976;-65
2023/01/20 00:54:30;;;;;;;;;;;0.10;99.90;;;;;;5047782;28;19924;-64
2023/01/20 00:56:56;;;;;;;;;;;0.20;99.90;;;;;;5074925;28;19927;-65
2023/01/20 00:59:22;;;;;;;;;;;0.20;99.90;;;;;;5060370;28;19924;-64
2023/01/20 01:01:47;;;;;;;;;;;0.20;99.90;;;;;;5084082;28;19916;-64
2023/01/20 01:04:13;;;;;;;;;;;0.30;99.90;;;;;;5059587;28;19974;-65
2023/01/20 01:06:38;;;;;;;;;;;0.30;99.90;;;;;;5079921;28;20040;-64
2023/01/20 01:09:04;;;;;;;;;;;0.30;99.90;;;;;;5072512;28;19923;-64
2023/01/20 01:11:30;;;;;;;;;;;0.30;99.90;;;;;;5066628;28;20704;-65
2023/01/20 01:13:58;;;;;;;;;;;0.40;99.90;;;;;;5064272;28;19927;-64
2023/01/20 01:16:24;;;;;;;;;;;0.40;99.90;;;;;;5063033;28;19966;-65
2023/01/20 01:18:52;;;;;;;;;;;0.40;99.90;;;;;;5079982;28;19950;-64
2023/01/20 01:21:17;;;;;;;;;;;0.40;99.90;;;;;;5080540;28;19939;-64
2023/01/20 01:23:43;;;;;;;;;;;0.40;99.90;;;;;;5079205;28;19977;-65
2023/01/20 01:26:09;;;;;;;;;;;0.50;99.90;;;;;;5076638;28;19920;-64
2023/01/20 01:28:35;;;;;;;;;;;0.40;99.90;;;;;;5081196;28;19931;-64
2023/01/20 01:31:02;;;;;;;;;;;0.40;99.90;;;;;;5075039;28;19962;-64
2023/01/20 01:33:28;;;;;;;;;;;0.50;99.90;;;;;;5059820;28;20035;-64
2023/01/20 01:35:54;;;;;;;;;;;0.50;99.90;;;;;;5054827;28;19917;-64
2023/01/20 01:38:20;;;;;;;;;;;0.50;99.90;;;;;;5084245;28;20399;-64
2023/01/20 01:40:48;;;;;;;;;;;0.50;99.90;;;;;;5081699;28;19920;-64
2023/01/20 01:43:40;;;;;;;;;;;0.50;99.90;;;;;;5072720;28;20283;-64
2023/01/20 01:46:06;;;;;;;;;;;0.50;99.90;;;;;;5051473;28;20015;-64
2023/01/20 01:48:34;;;;;;;;;;;0.50;99.90;;;;;;5063463;28;20006;-64
2023/01/20 01:51:02;;;;;;;;;;;0.50;99.90;;;;;;5079281;28;19921;-65
2023/01/20 01:53:30;;;;;;;;;;;0.40;99.90;;;;;;5063690;28;20298;-64
2023/01/20 01:55:58;;;;;;;;;;;0.50;99.90;;;;;;5076456;28;20014;-65
2023/01/20 01:58:26;;;;;;;;;;;0.50;99.90;;;;;;5081557;28;19979;-64
2023/01/20 02:00:52;;;;;;;;;;;0.50;99.90;;;;;;5077112;28;19917;-64
2023/01/20 02:03:17;;;;;;;;;;;0.50;99.90;;;;;;5083791;28;19923;-63
2023/01/20 02:05:43;;;;;;;;;;;0.50;99.90;;;;;;5061686;28;19991;-64
2023/01/20 02:08:09;;;;;;;;;;;0.50;99.90;;;;;;5060082;28;19916;-64
2023/01/20 02:10:35;;;;;;;;;;;0.50;99.90;;;;;;5081627;28;19966;-64
2023/01/20 02:13:00;;;;;;;;;;;0.50;99.90;;;;;;5060246;28;19920;-64
2023/01/20 02:15:29;;;;;;;;;;;0.40;99.90;;;;;;5082520;28;19958;-65
2023/01/20 02:18:01;;;;;;;;;;;0.50;99.90;;;;;;5077125;28;19921;-64
2023/01/20 02:20:35;;;;;;;;;;;0.40;99.90;;;;;;5081716;28;19924;-65
2023/01/20 02:23:13;;;;;;;;;;;0.40;99.90;;;;;;5061536;28;19927;-64
2023/01/20 02:25:54;;;;;;;;;;;0.40;99.90;;;;;;5058258;28;20003;-64
2023/01/20 02:28:28;;;;;;;;;;;0.40;99.90;;;;;;5059795;28;19920;-64
2023/01/20 02:31:07;;;;;;;;;;;0.40;99.90;;;;;;5059163;28;19935;-63
2023/01/20 02:33:45;;;;;;;;;;;0.40;99.90;;;;;;5077375;28;19916;-63
2023/01/20 02:36:14;;;;;;;;;;;0.40;99.90;;;;;;5084227;28;19993;-64
2023/01/20 02:38:59;;;;;;;;;;;0.40;99.90;;;;;;5077487;28;19924;-63
2023/01/20 02:41:30;;;;;;;;;;;0.40;99.90;;;;;;5058732;28;19927;-64
2023/01/20 02:44:15;;;;;;;;;;;0.30;99.90;;;;;;5077606;28;19942;-63
2023/01/20 02:46:52;;;;;;;;;;;0.30;99.90;;;;;;5062387;28;19927;-63
2023/01/20 02:49:39;;;;;;;;;;;0.40;99.90;;;;;;5080813;28;20006;-64
2023/01/20 02:52:09;;;;;;;;;;;0.40;99.90;;;;;;5065609;28;19952;-63
2023/01/20 02:54:36;;;;;;;;;;;0.30;99.90;;;;;;5080826;28;19923;-64
2023/01/20 02:57:03;;;;;;;;;;;0.30;99.90;;;;;;5076509;28;19950;-64
2023/01/20 02:59:31;;;;;;;;;;;0.30;99.90;;;;;;5055329;28;19920;-63
2023/01/20 03:02:01;;;;;;;;;;;0.30;99.90;;;;;;5078148;28;20300;-64
2023/01/20 03:04:28;;;;;;;;;;;0.30;99.90;;;;;;5080040;28;19921;-64
2023/01/20 03:06:55;;;;;;;;;;;0.40;99.90;;;;;;5082479;28;19916;-66
2023/01/20 03:09:24;;;;;;;;;;;0.30;99.90;;;;;;5074523;28;20375;-66
2023/01/20 03:11:52;;;;;;;;;;;0.30;99.90;;;;;;5076766;28;20498;-66
2023/01/20 03:14:17;;;;;;;;;;;0.30;99.90;;;;;;5075544;28;19924;-66
2023/01/20 03:16:46;;;;;;;;;;;0.30;99.90;;;;;;5081100;28;20390;-66
2023/01/20 03:19:13;;;;;;;;;;;0.30;99.90;;;;;;5053996;28;19928;-66
2023/01/20 03:21:39;;;;;;;;;;;0.30;99.90;;;;;;5063791;28;20269;-66
2023/01/20 03:24:05;;;;;;;;;;;0.30;99.90;;;;;;5080572;28;19923;-66
2023/01/20 03:26:31;;;;;;;;;;;0.30;99.90;;;;;;5056069;28;19970;-66
2023/01/20 03:28:57;;;;;;;;;;;0.30;99.90;;;;;;5070622;28;19931;-66
2023/01/20 03:31:28;;;;;;;;;;;0.30;99.90;;;;;;5078073;28;19923;-66
2023/01/20 03:33:55;;;;;;;;;;;0.30;99.90;;;;;;5081022;28;19920;-66
2023/01/20 03:36:22;;;;;;;;;;;0.30;99.90;;;;;;5078765;28;20379;-66
2023/01/20 03:38:48;;;;;;;;;;;0.30;99.90;;;;;;5081810;28;20010;-66
2023/01/20 03:41:33;;;;;;;;;;;0.30;99.90;;;;;;5061600;28;20023;-65
2023/01/20 03:44:08;;;;;;;;;;;0.40;99.90;;;;;;5076952;28;20391;-65
2023/01/20 03:46:40;;;;;;;;;;;0.30;99.90;;;;;;5079792;28;19920;-65
2023/01/20 03:49:12;;;;;;;;;;;0.40;99.90;;;;;;5071574;28;19923;-66
2023/01/20 03:51:53;;;;;;;;;;;0.30;99.90;;;;;;5078712;28;19968;-66
2023/01/20 03:54:23;;;;;;;;;;;0.40;99.90;;;;;;5083036;28;19923;-66
2023/01/20 03:57:10;;;;;;;;;;;0.40;99.90;;;;;;5056742;28;20292;-66
2023/01/20 03:59:37;;;;;;;;;;;0.40;99.90;;;;;;5080081;28;19963;-66
2023/01/20 04:02:04;;;;;;;;;;;0.30;99.90;;;;;;5082613;28;20010;-66
2023/01/20 04:04:32;;;;;;;;;;;0.40;99.90;;;;;;5083347;28;19916;-66
2023/01/20 04:06:58;;;;;;;;;;;0.30;99.90;;;;;;5079452;28;20083;-66
2023/01/20 04:09:26;;;;;;;;;;;0.40;99.90;;;;;;5063650;28;19917;-65
2023/01/20 04:11:52;;;;;;;;;;;0.40;99.90;;;;;;5080596;28;19969;-66
2023/01/20 04:14:17;;;;;;;;;;;0.40;99.90;;;;;;5065997;28;19923;-65
2023/01/20 04:16:49;;;;;;;;;;;0.40;99.90;;;;;;5069057;28;19963;-66
2023/01/20 04:19:15;;;;;;;;;;;0.40;99.90;;;;;;5066882;28;19935;-66
2023/01/20 04:22:01;;;;;;;;;;;0.40;99.90;;;;;;5065778;28;19969;-66
2023/01/20 04:24:36;;;;;;;;;;;0.40;99.90;;;;;;5063830;28;19920;-65
2023/01/20 04:27:02;;;;;;;;;;;0.40;99.90;;;;;;5082714;28;20402;-66
2023/01/20 04:29:27;;;;;;;;;;;0.40;99.90;;;;;;5064250;28;19924;-66
2023/01/20 04:31:59;;;;;;;;;;;0.40;99.90;;;;;;5061480;28;19916;-66
2023/01/20 04:34:25;;;;;;;;;;;0.40;99.90;;;;;;5061673;28;19920;-66
2023/01/20 04:36:50;;;;;;;;;;;0.40;99.90;;;;;;5085857;28;19927;-65
2023/01/20 04:39:16;;;;;;;;;;;0.40;99.90;;;;;;5081999;28;20516;-65
2023/01/20 04:41:41;;;;;;;;;;;0.40;99.90;;;;;;5077373;28;19916;-65
2023/01/20 04:44:07;;;;;;;;;;;0.40;99.90;;;;;;5078839;28;19966;-65
2023/01/20 04:46:33;;;;;;;;;;;0.40;99.90;;;;;;5055472;28;19920;-66
2023/01/20 04:48:58;;;;;;;;;;;0.40;99.90;;;;;;5079576;28;19923;-66
2023/01/20 04:51:24;;;;;;;;;;;0.40;99.90;;;;;;5079119;28;19956;-65
2023/01/20 04:53:49;;;;;;;;;;;0.40;99.90;;;;;;5083464;28;20291;-66
2023/01/20 04:56:15;;;;;;;;;;;0.40;99.90;;;;;;5077738;28;20312;-66
2023/01/20 04:58:41;;;;;;;;;;;0.40;99.90;;;;;;5081337;28;19920;-66
2023/01/20 05:01:07;;;;;;;;;;;0.40;99.90;;;;;;5062857;28;19923;-66
2023/01/20 05:03:34;;;;;;;;;;;0.40;99.90;;;;;;5069103;28;20291;-66
2023/01/20 05:05:59;;;;;;;;;;;0.40;99.90;;;;;;5081850;28;19916;-66
2023/01/20 05:08:25;;;;;;;;;;;0.40;99.90;;;;;;5072997;28;19917;-66
2023/01/20 05:10:51;;;;;;;;;;;0.40;99.90;;;;;;5081664;28;20116;-66
2023/01/20 05:13:16;;;;;;;;;;;0.40;99.90;;;;;;5081312;28;19916;-66
2023/01/20 05:15:42;;;;;;;;;;;0.40;99.90;;;;;;5078777;28;19994;-66
2023/01/20 05:18:08;;;;;;;;;;;0.50;99.90;;;;;;5079137;28;19920;-65
2023/01/20 05:20:34;;;;;;;;;;;0.40;99.90;;;;;;5080719;28;19935;-66
2023/01/20 05:22:59;;;;;;;;;;;0.40;99.90;;;;;;5060924;28;20287;-66
2023/01/20 05:25:25;;;;;;;;;;;0.40;99.90;;;;;;5061649;28;19916;-66
2023/01/20 05:27:50;;;;;;;;;;;0.40;99.90;;;;;;5082146;28;19930;-66
2023/01/20 05:30:16;;;;;;;;;;;0.40;99.90;;;;;;5064259;28;19916;-65
2023/01/20 05:32:43;;;;;;;;;;;0.40;99.90;;;;;;5057799;28;20386;-66
2023/01/20 05:35:09;;;;;;;;;;;0.50;99.90;;;;;;5082603;28;19923;-66
2023/01/20 05:37:34;;;;;;;;;;;0.40;99.90;;;;;;5079323;28;19924;-66
2023/01/20 05:40:00;;;;;;;;;;;0.50;99.90;;;;;;5075474;28;20344;-66
2023/01/20 05:42:26;;;;;;;;;;;0.40;99.90;;;;;;5074700;28;19916;-66
2023/01/20 05:44:51;;;;;;;;;;;0.40;99.90;;;;;;5080029;28;20237;-66
2023/01/20 05:47:17;;;;;;;;;;;0.40;99.90;;;;;;5075741;28;19924;-66
2023/01/20 05:49:43;;;;;;;;;;;0.40;99.90;;;;;;5060466;28;20635;-65
2023/01/20 05:52:08;;;;;;;;;;;0.40;99.90;;;;;;5066369;28;19927;-65
2023/01/20 05:54:34;;;;;;;;;;;0.40;99.90;;;;;;5078197;28;19928;-65
2023/01/20 05:56:59;;;;;;;;;;;0.40;99.90;;;;;;5077430;28;19916;-66
2023/01/20 05:59:25;;;;;;;;;;;0.40;99.90;;;;;;5080843;28;19943;-65
2023/01/20 06:01:50;;;;;;;;;;;0.50;99.90;;;;;;5071314;28;19965;-65
2023/01/20 06:04:16;;;;;;;;;;;0.40;99.90;;;;;;5060571;28;20105;-65
2023/01/20 06:06:42;;;;;;;;;;;0.50;99.90;;;;;;5077978;28;19924;-65
2023/01/20 06:09:09;;;;;;;;;;;0.40;99.90;;;;;;5070344;28;19923;-66
2023/01/20 06:11:35;;;;;;;;;;;0.40;99.90;;;;;;5084041;28;20014;-65
2023/01/20 06:14:00;;;;;;;;;;;0.40;99.90;;;;;;5066689;28;19997;-66
2023/01/20 06:16:26;;;;;;;;;;;0.40;99.90;;;;;;5075562;28;19916;-66
2023/01/20 06:18:52;;;;;;;;;;;0.50;99.90;;;;;;5079216;28;19935;-66
2023/01/20 06:21:17;;;;;;;;;;;0.40;99.90;;;;;;5059392;28;19915;-66
2023/01/20 06:23:43;;;;;;;;;;;0.50;99.90;;;;;;5078466;28;19924;-65
2023/01/20 06:26:12;;;;;;;;;;;0.40;99.90;;;;;;5085501;28;19993;-66
2023/01/20 06:28:38;;;;;;;;;;;0.50;99.90;;;;;;5080113;28;19942;-66
2023/01/20 06:31:03;;;;;;;;;;;0.50;99.90;;;;;;5057365;28;19920;-66
2023/01/20 06:33:29;;;;;;;;;;;0.40;99.90;;;;;;5081531;28;20390;-66
2023/01/20 06:35:56;;;;;;;;;;;0.50;99.90;;;;;;5081083;28;20057;-66
2023/01/20 06:38:22;;;;;;;;;;;0.50;99.90;;;;;;5082719;28;19916;-66
2023/01/20 06:40:48;;;;;;;;;;;0.50;99.90;;;;;;5064638;28;19928;-66
2023/01/20 06:43:13;;;;;;;;;;;0.50;99.90;;;;;;5080777;28;20387;-66
2023/01/20 06:45:39;;;;;;;;;;;0.50;99.90;;;;;;5086794;28;19916;-66
2023/01/20 06:48:05;;;;;;;;;;;0.50;99.90;;;;;;5082947;28;19916;-67
2023/01/20 06:50:31;;;;;;;;;;;0.50;99.90;;;;;;5083825;28;20011;-66
2023/01/20 06:52:57;;;;;;;;;;;0.50;99.90;;;;;;5064078;28;19917;-66
2023/01/20 06:55:22;;;;;;;;;;;0.50;99.90;;;;;;5083081;28;19922;-66
2023/01/20 06:57:48;;;;;;;;;;;0.50;99.90;;;;;;5065260;28;19998;-66
2023/01/20 07:00:14;;;;;;;;;;;0.50;99.90;;;;;;5081443;28;20315;-67
2023/01/20 07:02:39;;;;;;;;;;;0.50;99.90;;;;;;5081441;28;19931;-67
2023/01/20 07:05:07;;;;;;;;;;;0.60;99.90;;;;;;5062132;28;20352;-67
2023/01/20 07:07:33;;;;;;;;;;;0.60;99.90;;;;;;5075290;28;19963;-67
2023/01/20 07:09:59;;;;;;;;;;;0.50;99.90;;;;;;5061884;28;19924;-67
2023/01/20 07:12:25;;;;;;;;;;;0.50;99.90;;;;;;5084092;28;20318;-67
2023/01/20 07:14:50;;;;;;;;;;;0.50;99.90;;;;;;5083777;28;20053;-67
2023/01/20 07:17:16;;;;;;;;;;;0.50;99.90;;;;;;5082613;28;19920;-67
2023/01/20 07:19:41;;;;;;;;;;;0.60;99.90;;;;;;5075738;28;19924;-67
2023/01/20 07:22:07;;;;;;;;;;;0.50;99.90;;;;;;5082351;28;19927;-67
2023/01/20 07:24:33;;;;;;;;;;;0.60;99.90;;;;;;5077299;28;19920;-67
2023/01/20 07:26:58;;;;;;;;;;;0.60;99.90;;;;;;5068269;28;20836;-66
2023/01/20 07:29:25;;;;;;;;;;;0.50;99.90;;;;;;5081629;28;19916;-65
2023/01/20 07:31:50;;;;;;;;;;;0.60;99.90;;;;;;5082210;28;20307;-65
2023/01/20 07:34:16;;;;;;;;;;;0.60;99.90;;;;;;5081980;28;19926;-65
2023/01/20 07:36:42;;;;;;;;;;;0.60;99.90;;;;;;5078964;28;19916;-65
2023/01/20 07:39:09;;;;;;;;;;;0.60;99.90;;;;;;5082665;28;19920;-65
2023/01/20 07:41:34;;;;;;;;;;;0.60;99.90;;;;;;5082222;28;19992;-66
2023/01/20 07:44:00;;;;;;;;;;;0.60;99.90;;;;;;5064686;28;20409;-65
2023/01/20 07:46:25;;;;;;;;;;;0.60;99.90;;;;;;5085723;28;19920;-65
2023/01/20 07:48:51;;;;;;;;;;;0.60;99.90;;;;;;5064267;28;20295;-66
2023/01/20 07:51:17;;;;;;;;;;;0.50;99.90;;;;;;5064544;28;19916;-65
2023/01/20 07:53:46;;;;;;;;;;;0.60;99.90;;;;;;5065004;28;19916;-65
2023/01/20 07:56:14;;;;;;;;;;;0.60;99.90;;;;;;5076538;28;19924;-65
2023/01/20 07:58:40;;;;;;;;;;;0.60;99.90;;;;;;5066975;28;19917;-66
2023/01/20 08:01:07;;;;;;;;;;;0.60;99.90;;;;;;5082930;28;20072;-66
2023/01/20 08:03:33;;;;;;;;;;;0.60;99.90;;;;;;5064954;28;19917;-66
2023/01/20 08:06:09;;;;;;;;;;;0.60;99.90;;;;;;5063050;28;19917;-66
2023/01/20 08:08:35;;;;;;;;;;;0.70;99.90;;;;;;5063833;28;19966;-66
2023/01/20 08:11:01;;;;;;;;;;;0.70;99.90;;;;;;5080764;28;19971;-66
2023/01/20 08:13:30;;;;;;;;;;;0.70;99.90;;;;;;5061258;28;20288;-66
2023/01/20 08:15:58;;;;;;;;;;;0.70;99.90;;;;;;5064678;28;19916;-66
2023/01/20 08:18:24;;;;;;;;;;;0.70;99.90;;;;;;5066715;28;20273;-66
2023/01/20 08:20:49;;;;;;;;;;;0.70;99.90;;;;;;5061686;28;19970;-66
2023/01/20 08:23:15;;;;;;;;;;;0.70;99.90;;;;;;5053997;28;19978;-66
2023/01/20 08:25:40;;;;;;;;;;;0.70;99.90;;;;;;5041134;28;19924;-66
2023/01/20 08:28:06;;;;;;;;;;;0.80;99.90;;;;;;5040340;28;19917;-66
2023/01/20 08:30:32;;;;;;;;;;;0.70;99.90;;;;;;5063491;28;19916;-66
2023/01/20 08:32:57;;;;;;;;;;;0.70;99.90;;;;;;5067253;28;19920;-66
2023/01/20 08:35:23;;;;;;;;;;;0.80;99.90;;;;;;5044919;28;19924;-66
2023/01/20 08:37:49;;;;;;;;;;;0.80;99.90;;;;;;5063453;28;19942;-66
2023/01/20 08:40:14;;;;;;;;;;;0.80;99.90;;;;;;5062813;28;20026;-66
2023/01/20 08:42:40;;;;;;;;;;;0.80;99.90;;;;;;5064123;28;19916;-66
2023/01/20 08:45:06;;;;;;;;;;;0.80;99.90;;;;;;5062414;28;19916;-66
2023/01/20 08:47:36;;;;;;;;;;;0.80;99.90;;;;;;5046275;28;19939;-66
2023/01/20 08:50:02;;;;;;;;;;;0.80;99.90;;;;;;5061179;28;19964;-66
2023/01/20 08:52:28;;;;;;;;;;;0.80;99.90;;;;;;5046165;28;19974;-66
2023/01/20 08:54:53;;;;;;;;;;;0.80;99.90;;;;;;5044386;28;20348;-66
2023/01/20 08:57:19;;;;;;;;;;;0.90;99.90;;;;;;5066066;28;19959;-66
2023/01/20 08:59:46;;;;;;;;;;;0.90;99.90;;;;;;5045085;28;19928;-66
2023/01/20 09:02:11;;;;;;;;;;;0.80;99.90;;;;;;5045601;28;19920;-66
2023/01/20 09:04:37;;;;;;;;;;;0.90;99.90;;;;;;5063151;28;19996;-66
2023/01/20 09:07:03;;;;;;;;;;;0.80;99.90;;;;;;5059437;28;19923;-66
2023/01/20 09:09:28;;;;;;;;;;;0.90;99.90;;;;;;5061222;28;19927;-66
2023/01/20 09:11:54;;;;;;;;;;;0.90;99.90;;;;;;5064052;28;20036;-66
2023/01/20 09:14:21;;;;;;;;;;;0.90;99.90;;;;;;5067762;28;19916;-66
2023/01/20 09:16:47;;;;;;;;;;;0.90;99.90;;;;;;5069353;28;19924;-66
2023/01/20 09:19:13;;;;;;;;;;;0.90;99.90;;;;;;5063195;28;19932;-66
2023/01/20 09:21:39;;;;;;;;;;;1.00;99.90;;;;;;5075418;28;20245;-66
2023/01/20 09:24:04;;;;;;;;;;;1.00;99.90;;;;;;5065433;28;20555;-65
2023/01/20 09:26:37;;;;;;;;;;;1.00;99.90;;;;;;5083232;28;20281;-66
2023/01/20 09:29:10;;;;;;;;;;;1.00;99.90;;;;;;5080727;28;19916;-66
2023/01/20 09:31:37;;;;;;;;;;;1.00;99.90;;;;;;5068146;28;19927;-66
2023/01/20 09:34:02;;;;;;;;;;;1.00;99.90;;;;;;5079091;28;20345;-66
2023/01/20 09:36:28;;;;;;;;;;;1.00;99.90;;;;;;5083585;28;20043;-66
2023/01/20 09:44:44;;;;;;;;;;;1.00;99.90;;;;;;5010072;28;19924;-67
2023/01/20 09:47:18;;;;;;;;;;;1.10;99.90;;;;;;4981626;28;19917;-64
2023/01/20 09:55:28;;;;;;;;;;;1.10;99.90;;;;;;5018152;28;20041;-64
2023/01/20 09:58:01;;;;;;;;;;;1.20;99.90;;;;;;5055875;28;20486;-63
2023/01/20 10:00:28;;;;;;;;;;;1.10;99.90;;;;;;5033324;28;20339;-65
2023/01/20 10:02:59;;;;;;;;;;;1.20;99.90;;;;;;5059696;28;19920;-64
2023/01/20 10:05:31;;;;;;;;;;;1.20;99.90;;;;;;5065399;28;19916;-64
2023/01/20 10:08:02;;;;;;;;;;;1.20;99.90;;;;;;5063990;28;19920;-64
2023/01/20 10:10:31;;;;;;;;;;;1.20;99.90;;;;;;5080854;28;19931;-64
2023/01/20 10:13:10;;;;;;;;;;;1.20;99.90;;;;;;5066307;28;19920;-64
2023/01/20 10:15:41;;;;;;;;;;;1.30;99.90;;;;;;5063549;28;19973;-64
2023/01/20 10:18:19;;;;;;;;;;;1.20;99.90;;;;;;5071953;28;19990;-64
2023/01/20 10:20:44;;;;;;;;;;;1.20;99.90;;;;;;5082722;28;20015;-65
2023/01/20 10:23:20;;;;;;;;;;;1.20;99.90;;;;;;5062080;28;20333;-63
2023/01/20 10:25:50;;;;;;;;;;;1.20;99.90;;;;;;5076992;28;19959;-64
2023/01/20 10:28:21;;;;;;;;;;;1.20;99.90;;;;;;5065972;28;19982;-64
2023/01/20 10:30:46;;;;;;;;;;;1.20;99.90;;;;;;5064085;28;19943;-64
2023/01/20 10:33:13;;;;;;;;;;;1.20;99.90;;;;;;5063537;28;20372;-64
2023/01/20 10:35:42;;;;;;;;;;;1.20;99.90;;;;;;5063868;28;19951;-65
2023/01/20 10:38:18;;;;;;;;;;;1.20;99.90;;;;;;5063205;28;19920;-64
2023/01/20 10:40:46;;;;;;;;;;;1.20;99.90;;;;;;5064339;28;19965;-64
2023/01/20 10:43:12;;;;;;;;;;;1.20;99.90;;;;;;5057832;28;19923;-64
2023/01/20 10:45:46;;;;;;;;;;;1.20;99.90;;;;;;5077191;28;20010;-65
2023/01/20 10:48:14;;;;;;;;;;;1.30;99.90;;;;;;5065488;28;19927;-64
2023/01/20 10:50:40;;;;;;;;;;;1.20;99.90;;;;;;5080300;28;20402;-66
2023/01/20 10:53:11;;;;;;;;;;;1.20;99.90;;;;;;5082576;28;20015;-65
2023/01/20 10:55:37;;;;;;;;;;;1.30;99.90;;;;;;5084327;28;19963;-64
2023/01/20 10:58:18;;;;;;;;;;;1.30;99.90;;;;;;5081905;28;19993;-64
2023/01/20 11:00:43;;;;;;;;;;;1.30;99.90;;;;;;5065575;28;19927;-64
2023/01/20 11:03:13;;;;;;;;;;;1.30;99.90;;;;;;5050401;28;19995;-65
2023/01/20 11:05:41;;;;;;;;;;;1.20;99.90;;;;;;5068981;28;19931;-65
2023/01/20 11:08:15;;;;;;;;;;;1.20;99.90;;;;;;5052985;28;19946;-64
2023/01/20 11:10:40;;;;;;;;;;;1.20;99.90;;;;;;5069713;28;19947;-65
2023/01/20 11:13:10;;;;;;;;;;;1.30;99.90;;;;;;5068919;28;20372;-65
2023/01/20 11:15:38;;;;;;;;;;;1.20;99.90;;;;;;5068585;28;20378;-64
2023/01/20 11:18:12;;;;;;;;;;;1.20;99.90;;;;;;5087539;28;19916;-65
2023/01/20 11:20:43;;;;;;;;;;;1.30;99.90;;;;;;5067951;28;19943;-64
2023/01/20 11:23:18;;;;;;;;;;;1.30;99.90;;;;;;5085509;28;19973;-64
2023/01/20 11:25:52;;;;;;;;;;;1.30;99.90;;;;;;5086326;28;19939;-65
2023/01/20 11:28:18;;;;;;;;;;;1.30;99.90;;;;;;5066598;28;20358;-65
2023/01/20 11:30:49;;;;;;;;;;;1.30;99.90;;;;;;5068658;28;19915;-64
2023/01/20 11:33:25;;;;;;;;;;;1.30;99.90;;;;;;5068636;28;19967;-64
2023/01/20 11:36:04;;;;;;;;;;;1.30;99.90;;;;;;5068083;28;20423;-65
2023/01/20 11:38:31;;;;;;;;;;;1.30;99.90;;;;;;5066578;28;19924;-64
2023/01/20 11:40:57;;;;;;;;;;;1.30;99.90;;;;;;5085532;28;19931;-64
2023/01/20 11:43:26;;;;;;;;;;;1.30;99.90;;;;;;5065869;28;19931;-65
2023/01/20 11:46:07;;;;;;;;;;;1.30;99.90;;;;;;5083882;28;20007;-65
2023/01/20 11:48:33;;;;;;;;;;;1.30;99.90;;;;;;5088740;28;19921;-65
2023/01/20 11:51:02;;;;;;;;;;;1.30;99.90;;;;;;5068431;28;20023;-64
2023/01/20 11:53:30;;;;;;;;;;;1.30;99.90;;;;;;5065883;28;19928;-64
2023/01/20 11:56:00;;;;;;;;;;;1.30;99.90;;;;;;5084126;28;19967;-65
2023/01/20 11:58:47;;;;;;;;;;;1.30;99.90;;;;;;5082781;28;19919;-66
2023/01/20 12:01:19;;;;;;;;;;;1.30;99.90;;;;;;5064262;28;19966;-65
2023/01/20 12:03:54;;;;;;;;;;;1.50;99.90;;;;;;5065564;28;20355;-64
2023/01/20 12:06:23;;;;;;;;;;;1.40;99.90;;;;;;5083031;28;19916;-64
2023/01/20 12:08:51;;;;;;;;;;;1.40;99.90;;;;;;5083299;28;19924;-64
2023/01/20 12:11:37;;;;;;;;;;;1.50;99.90;;;;;;5084565;28;19915;-64
2023/01/20 12:14:24;;;;;;;;;;;1.40;99.90;;;;;;5033860;28;19923;-64
2023/01/20 12:16:58;;;;;;;;;;;1.40;99.90;;;;;;5063002;28;19967;-65
2023/01/20 12:19:28;;;;;;;;;;;1.40;99.90;;;;;;5083641;28;19950;-65
2023/01/20 12:21:55;;;;;;;;;;;1.50;99.90;;;;;;5066874;28;19916;-64
2023/01/20 12:25:06;;;;;;;;;;;1.50;99.90;;;;;;5068031;28;20000;-64
2023/01/20 12:27:22;;;;;;;;;;;1.50;99.90;;;;;;5066468;28;19916;-64
2023/01/20 12:29:50;;;;;;;;;;;1.50;99.90;;;;;;5081516;28;19924;-65
2023/01/20 12:32:16;;;;;;;;;;;1.50;99.90;;;;;;5077899;28;20245;-64
2023/01/20 12:34:41;;;;;;;;;;;1.50;99.90;;;;;;5062146;28;19916;-65
2023/01/20 12:37:28;;;;;;;;;;;1.50;99.90;;;;;;5085834;28;19916;-64
2023/01/20 12:39:54;;;;;;;;;;;1.50;99.90;;;;;;5079572;28;19928;-64
2023/01/20 12:42:35;;;;;;;;;;;1.50;99.90;;;;;;5044958;28;19917;-64
2023/01/20 12:45:16;;;;;;;;;;;1.50;99.90;;;;;;5065380;28;20410;-64
2023/01/20 12:47:48;;;;;;;;;;;1.50;99.90;;;;;;5056226;28;19997;-65
2023/01/20 12:50:32;;;;;;;;;;;1.50;99.90;;;;;;5063452;28;20011;-64
2023/01/20 12:53:04;;;;;;;;;;;1.50;99.90;;;;;;5080335;28;19916;-65
2023/01/20 12:55:51;;;;;;;;;;;1.50;99.90;;;;;;5066182;28;19916;-64
2023/01/20 12:58:19;;;;;;;;;;;1.50;99.90;;;;;;5076139;28;19920;-65
2023/01/20 13:00:51;;;;;;;;;;;1.60;99.90;;;;;;5066175;28;19927;-64
2023/01/20 13:03:35;;;;;;;;;;;1.50;99.90;;;;;;5070177;28;20002;-65
2023/01/20 13:06:18;;;;;;;;;;;1.60;99.90;;;;;;5079415;28;20384;-64
2023/01/20 13:08:58;;;;;;;;;;;1.50;99.90;;;;;;5077416;28;20003;-64
2023/01/20 13:11:24;;;;;;;;;;;1.50;99.90;;;;;;5083064;28;19923;-64
2023/01/20 13:14:05;;;;;;;;;;;1.50;99.90;;;;;;5077888;28;19931;-65
2023/01/20 13:16:35;;;;;;;;;;;1.50;99.90;;;;;;5082323;28;19920;-65
2023/01/20 13:19:12;;;;;;;;;;;1.50;99.90;;;;;;5057545;28;20012;-65
2023/01/20 13:21:40;;;;;;;;;;;1.50;99.90;;;;;;5064581;28;19924;-65
2023/01/20 13:24:09;;;;;;;;;;;1.50;99.90;;;;;;5062012;28;19978;-65
2023/01/20 13:26:35;;;;;;;;;;;1.50;99.90;;;;;;5084836;28;19927;-65
2023/01/20 13:29:01;;;;;;;;;;;1.50;99.90;;;;;;5076877;28;19930;-64
2023/01/20 13:31:36;;;;;;;;;;;1.50;99.90;;;;;;5060708;28;19915;-65
2023/01/20 13:34:20;;;;;;;;;;;1.60;99.90;;;;;;5082847;28;20348;-64
2023/01/20 13:37:01;;;;;;;;;;;1.60;99.90;;;;;;5080490;28;19931;-65
2023/01/20 13:39:44;;;;;;;;;;;1.60;99.90;;;;;;5074243;28;19924;-64
2023/01/20 13:42:32;;;;;;;;;;;1.60;99.90;;;;;;5084504;28;20408;-63
2023/01/20 13:45:10;;;;;;;;;;;1.60;99.90;;;;;;5056420;28;20283;-64
2023/01/20 13:47:53;;;;;;;;;;;1.60;99.90;;;;;;5078752;28;19916;-65
2023/01/20 13:50:38;;;;;;;;;;;1.70;99.90;;;;;;5062160;28;19995;-64
2023/01/20 13:53:10;;;;;;;;;;;1.70;99.90;;;;;;5077235;28;19927;-65
2023/01/20 13:55:44;;;;;;;;;;;1.70;99.90;;;;;;5083633;28;19916;-64
2023/01/20 13:58:16;;;;;;;;;;;1.70;99.90;;;;;;5060315;28;19970;-65
2023/01/20 14:00:42;;;;;;;;;;;1.70;99.90;;;;;;5079594;28;19920;-63
2023/01/20 14:03:23;;;;;;;;;;;1.80;99.90;;;;;;5063336;28;19926;-64
2023/01/20 14:05:49;;;;;;;;;;;1.80;99.90;;;;;;5061079;28;19924;-64
2023/01/20 14:08:15;;;;;;;;;;;1.80;99.90;;;;;;5079187;28;19922;-63
2023/01/20 14:10:41;;;;;;;;;;;1.80;99.90;;;;;;5062421;28;19925;-63
2023/01/20 14:13:07;;;;;;;;;;;1.80;99.90;;;;;;5080809;28;19932;-64
2023/01/20 14:15:34;;;;;;;;;;;1.80;99.90;;;;;;5061002;28;19971;-63
2023/01/20 14:18:00;;;;;;;;;;;1.80;99.90;;;;;;5058093;28;19916;-63
2023/01/20 14:20:27;;;;;;;;;;;1.80;99.90;;;;;;5082025;28;19924;-64
2023/01/20 14:22:53;;;;;;;;;;;1.90;99.90;;;;;;5078849;28;20010;-64
2023/01/20 14:25:27;;;;;;;;;;;1.80;99.90;;;;;;5064195;28;19963;-64
2023/01/20 14:27:53;;;;;;;;;;;1.80;99.90;;;;;;5078582;28;19917;-64
2023/01/20 14:30:21;;;;;;;;;;;1.80;99.90;;;;;;5062561;28;20398;-64
2023/01/20 14:32:46;;;;;;;;;;;1.80;99.90;;;;;;5079478;28;19926;-63
2023/01/20 14:35:16;;;;;;;;;;;1.80;99.90;;;;;;5077495;28;19916;-67
2023/01/20 14:37:42;;;;;;;;;;;1.70;99.90;;;;;;5079993;28;19963;-66
2023/01/20 14:40:11;;;;;;;;;;;1.70;99.90;;;;;;5079755;28;19966;-67
2023/01/20 14:42:38;;;;;;;;;;;1.70;99.90;;;;;;5078743;28;19972;-66
2023/01/20 14:45:20;;;;;;;;;;;1.70;99.90;;;;;;5058615;28;20193;-66
2023/01/20 14:47:46;;;;;;;;;;;1.70;99.90;;;;;;5074036;28;19916;-67
2023/01/20 14:50:13;;;;;;;;;;;1.70;99.90;;;;;;5081713;28;19920;-66